Impacts TAF Board INFO
FOR SITUATIONAL AWARENESS. NOT TO BE USED FOR FLIGHT PLANNING PURPOSES.
IDs:

KMSP - Minneapolis-St Paul, MN, US

Issued at 1128 UTC 21 Nov 2017
Updated at 1351 UTC 21 Nov 2017
Potential Impact None Slight Moderate High
Time1321Z 21/14Z 21/15Z 21/16Z 21/17Z 21/18Z 21/19Z 21/20Z 21/21Z 21/22Z 21/23Z 22/00Z 22/01Z 22/02Z>>
Type OBS PRVL PRVL PRVL PRVL PRVL PRVL PRVL PRVL PRVL PRVL PRVL PRVL PRVL
VIS 10 6 >6 >6 >6 >6 >6 >6 >6 >6 >6 >6 >6 >6
CIG 39 30 35 35 35 -- -- -- -- -- -- -- -- --
Cover OVC OVC BKN BKN BKN SCT SCT SCT SCT SKC SKC SKC SKC SKC
FltCat VFR MVFR VFR VFR VFR VFR VFR VFR VFR VFR VFR VFR VFR VFR
WX -- -SN -- -- -- -- -- -- -- -- -- -- -- --
WDir 320 310 310 310 310 320 320 320 320 320 320 320 310 310
WSpd 21 21 21 21 21 21 21 21 21 15 15 15 11 11
WGst 29 35 33 33 33 30 30 30 30 23 23 23 -- --

Raw TAF
KMSP 211128Z 2112/2218 31021G35KT 6SM -SN BKN030 OVC050
  FM211500 31021G33KT P6SM BKN035
  FM211800 32021G30KT P6SM SCT040
  FM212200 32015G23KT P6SM SKC
  FM220100 31011KT P6SM SKC
  FM220500 30005KT P6SM FEW250
  FM221400 21004KT P6SM BKN250


Raw METAR
KMSP 211321Z 32021G29KT 10SM FEW026 SCT032 OVC039 M03/M10 A2986 RMK AO2 PK WND 32029/1319 SNE1258 P0000 T10281100
KMSP 211310Z 32022G29KT 10SM BKN029 OVC037 M03/M09 A2985 RMK AO2 PK WND 33029/1309 SNE1258 PRESRR P0000 T10281089
KMSP 211300Z 30019G27KT 9SM OVC030 M03/M08 A2984 RMK AO2 PK WND 31027/1259 SNE1258 P0000 T10281078
KMSP 211253Z 30017G26KT 7SM -SN BKN028 OVC033 M03/M07 A2983 RMK AO2 PK WND 30027/1157 SNB36 PRESRR SLP111 P0000 T10281072
KMSP 211153Z 30021G26KT 10SM OVC036 M02/M09 A2978 RMK AO2 PK WND 30035/1059 SLP092 T10221089 10056 21022 51047
KMSP 211053Z 31021G31KT 10SM OVC036 M02/M10 A2974 RMK AO2 PK WND 32038/1040 SLP078 T10221100

METAR Board
Radar Display
Forecast Discussion

FOR SITUATIONAL AWARENESS. NOT TO BE USED FOR FLIGHT PLANNING PURPOSES.